Time;durP1;ratioP1;P1;durP2;ratioP2;P2;SDS_P1;SDS_P2;PMS_P1;PMS_P2;Temp;Humidity;BMP_temperature;BMP_pressure;BME280_temperature;BME280_humidity;BME280_pressure;Samples;Min_cycle;Max_cycle;Signal;HPM_P1;HPM_P2
2022/12/01 00:02:16;;;;;;;55.75;23.25;;;;;;;;;;5019487;28;20026;-75
2022/12/01 00:04:42;;;;;;;59.78;23.38;;;;;;;;;;5011456;28;20033;-74
2022/12/01 00:07:08;;;;;;;62.53;24.92;;;;;;;;;;5029823;28;20025;-74
2022/12/01 00:12:19;;;;;;;59.58;24.02;;;;;;;;;;5031420;28;20126;-74
2022/12/01 00:14:53;;;;;;;63.28;24.45;;;;;;;;;;5013507;28;20110;-74
2022/12/01 00:17:19;;;;;;;53.50;23.38;;;;;;;;;;5028668;28;20049;-74
2022/12/01 00:19:45;;;;;;;55.40;23.70;;;;;;;;;;5011439;28;20052;-74
2022/12/01 00:22:11;;;;;;;58.85;24.63;;;;;;;;;;4996758;28;20476;-74
2022/12/01 00:24:37;;;;;;;57.03;24.15;;;;;;;;;;5008573;28;20041;-74
2022/12/01 00:27:03;;;;;;;59.00;23.50;;;;;;;;;;5034306;28;20022;-74
2022/12/01 00:29:29;;;;;;;58.83;24.20;;;;;;;;;;5033481;28;20021;-74
2022/12/01 00:31:55;;;;;;;53.78;24.63;;;;;;;;;;5008370;28;20021;-74
2022/12/01 00:34:22;;;;;;;64.28;23.77;;;;;;;;;;5034331;28;20033;-74
2022/12/01 00:36:48;;;;;;;59.53;24.42;;;;;;;;;;5034519;28;20048;-73
2022/12/01 00:39:15;;;;;;;60.88;24.52;;;;;;;;;;5034329;28;20108;-73
2022/12/01 00:41:41;;;;;;;59.72;22.80;;;;;;;;;;5016744;28;20040;-73
2022/12/01 00:44:07;;;;;;;69.82;25.55;;;;;;;;;;5034321;28;20022;-73
2022/12/01 00:46:33;;;;;;;57.78;24.55;;;;;;;;;;5034304;28;20021;-73
2022/12/01 00:48:59;;;;;;;63.65;25.38;;;;;;;;;;5015219;28;20465;-73
2022/12/01 00:51:26;;;;;;;59.17;24.13;;;;;;;;;;5014632;28;20388;-73
2022/12/01 00:53:52;;;;;;;65.68;25.00;;;;;;;;;;5016600;28;20026;-73
2022/12/01 00:56:19;;;;;;;58.08;24.17;;;;;;;;;;5034091;28;20083;-73
2022/12/01 00:58:45;;;;;;;60.55;24.58;;;;;;;;;;5034194;28;20120;-73
2022/12/01 01:01:11;;;;;;;60.40;24.58;;;;;;;;;;5029340;28;20026;-73
2022/12/01 01:03:38;;;;;;;60.40;24.33;;;;;;;;;;5014373;28;20068;-73
2022/12/01 01:06:08;;;;;;;64.90;25.27;;;;;;;;;;5024056;28;20029;-74
2022/12/01 01:08:34;;;;;;;64.97;25.92;;;;;;;;;;5034000;28;20526;-73
2022/12/01 01:11:01;;;;;;;59.72;25.63;;;;;;;;;;5033784;28;20026;-73
2022/12/01 01:13:27;;;;;;;65.55;26.27;;;;;;;;;;5033642;28;20030;-74
2022/12/01 01:15:58;;;;;;;71.97;28.38;;;;;;;;;;5033449;28;20046;-73
2022/12/01 01:18:24;;;;;;;74.45;27.25;;;;;;;;;;5004181;28;20030;-73
2022/12/01 01:21:01;;;;;;;70.13;27.17;;;;;;;;;;4996079;28;20109;-73
2022/12/01 01:23:27;;;;;;;70.80;27.85;;;;;;;;;;5015237;28;20026;-73
2022/12/01 01:25:53;;;;;;;68.75;28.63;;;;;;;;;;5033589;28;20021;-73
2022/12/01 01:28:20;;;;;;;69.82;27.45;;;;;;;;;;5033060;28;20029;-73
2022/12/01 01:30:46;;;;;;;70.35;27.05;;;;;;;;;;5031599;28;20034;-73
2022/12/01 01:33:12;;;;;;;70.03;27.52;;;;;;;;;;5003622;28;20025;-73
2022/12/01 01:35:38;;;;;;;69.72;29.55;;;;;;;;;;5023218;28;20041;-73
2022/12/01 01:38:04;;;;;;;71.20;28.42;;;;;;;;;;5033315;28;20030;-73
2022/12/01 01:40:30;;;;;;;72.43;27.38;;;;;;;;;;5033153;28;20025;-73
2022/12/01 01:42:56;;;;;;;73.03;27.27;;;;;;;;;;5015186;28;20080;-73
2022/12/01 01:45:28;;;;;;;70.75;28.38;;;;;;;;;;5033143;28;20025;-73
2022/12/01 01:47:57;;;;;;;70.90;26.92;;;;;;;;;;5022556;28;20056;-73
2022/12/01 01:50:24;;;;;;;72.60;27.30;;;;;;;;;;5013213;28;20098;-73
2022/12/01 01:52:54;;;;;;;66.93;28.13;;;;;;;;;;5012967;28;20480;-73
2022/12/01 01:55:20;;;;;;;63.55;27.38;;;;;;;;;;5027896;28;20036;-73
2022/12/01 01:57:46;;;;;;;70.03;27.00;;;;;;;;;;5032799;28;20041;-74
2022/12/01 02:00:14;;;;;;;72.55;27.75;;;;;;;;;;5031812;28;20132;-73
2022/12/01 02:02:44;;;;;;;64.13;26.25;;;;;;;;;;5016582;28;20025;-73
2022/12/01 02:05:24;;;;;;;74.07;27.25;;;;;;;;;;5016001;28;20371;-73
2022/12/01 02:07:51;;;;;;;73.15;28.48;;;;;;;;;;5014755;28;20025;-73
2022/12/01 02:10:21;;;;;;;70.10;27.67;;;;;;;;;;5032485;28;20030;-73
2022/12/01 02:13:03;;;;;;;76.05;28.40;;;;;;;;;;5032528;28;20029;-73
2022/12/01 02:15:32;;;;;;;72.55;27.48;;;;;;;;;;5032322;28;20045;-74
2022/12/01 02:18:16;;;;;;;75.68;27.70;;;;;;;;;;5006343;28;20050;-73
2022/12/01 02:20:49;;;;;;;75.25;26.98;;;;;;;;;;4994929;28;20038;-74
2022/12/01 02:23:18;;;;;;;67.00;25.42;;;;;;;;;;5012853;28;20034;-73
2022/12/01 02:25:56;;;;;;;76.53;27.58;;;;;;;;;;5032395;28;20029;-73
2022/12/01 02:28:43;;;;;;;79.20;27.75;;;;;;;;;;5031737;28;20033;-73
2022/12/01 02:31:17;;;;;;;70.00;25.30;;;;;;;;;;5023507;28;20018;-73
2022/12/01 02:33:49;;;;;;;73.70;28.02;;;;;;;;;;5023144;28;20056;-73
2022/12/01 02:36:17;;;;;;;70.65;27.63;;;;;;;;;;5032491;28;20044;-73
2022/12/01 02:38:49;;;;;;;73.57;28.17;;;;;;;;;;5032226;28;20044;-73
2022/12/01 02:41:15;;;;;;;;;;;;;;;;;;5032458;28;20041;-73
2022/12/01 02:43:41;;;;;;;66.55;24.98;;;;;;;;;;5031747;28;19913;-73
2022/12/01 02:46:13;;;;;;;73.90;26.58;;;;;;;;;;5032039;28;20029;-73
2022/12/01 02:48:41;;;;;;;82.90;27.67;;;;;;;;;;5015315;28;20128;-73
2022/12/01 02:51:16;;;;;;;82.72;27.63;;;;;;;;;;4994615;28;20026;-74
2022/12/01 02:53:43;;;;;;;71.22;26.40;;;;;;;;;;5013685;28;20080;-73
2022/12/01 02:56:11;;;;;;;75.75;26.55;;;;;;;;;;5031853;28;20091;-73
2022/12/01 02:58:37;;;;;;;70.68;26.30;;;;;;;;;;5031469;28;20034;-73
2022/12/01 03:01:07;;;;;;;73.53;26.88;;;;;;;;;;5027985;28;20033;-73
2022/12/01 03:03:33;;;;;;;69.22;26.58;;;;;;;;;;4993822;28;20159;-74
2022/12/01 03:06:11;;;;;;;85.88;28.25;;;;;;;;;;5004239;28;20182;-73
2022/12/01 03:08:44;;;;;;;78.15;27.67;;;;;;;;;;5031688;28;20056;-73
2022/12/01 03:11:25;;;;;;;76.68;28.75;;;;;;;;;;5031722;28;20024;-74
2022/12/01 03:14:04;;;;;;;78.50;27.38;;;;;;;;;;5031751;28;20454;-74
2022/12/01 03:16:59;;;;;;;81.20;27.90;;;;;;;;;;5031517;28;20049;-74
2022/12/01 03:19:34;;;;;;;71.28;25.90;;;;;;;;;;4995373;28;20125;-73
2022/12/01 03:22:04;;;;;;;79.35;26.80;;;;;;;;;;5011691;28;20026;-74
2022/12/01 03:24:31;;;;;;;78.40;27.80;;;;;;;;;;5022704;28;20021;-74
2022/12/01 03:27:00;;;;;;;75.78;27.08;;;;;;;;;;5014162;28;20036;-73
2022/12/01 03:29:39;;;;;;;83.82;27.75;;;;;;;;;;5029394;28;20116;-73
2022/12/01 03:32:09;;;;;;;74.38;25.85;;;;;;;;;;5017398;28;20380;-74
2022/12/01 03:34:35;;;;;;;82.53;28.75;;;;;;;;;;5025393;28;20112;-74
2022/12/01 03:37:05;;;;;;;79.85;28.45;;;;;;;;;;5031444;28;20258;-74
2022/12/01 03:39:32;;;;;;;83.43;28.02;;;;;;;;;;5031488;28;20117;-73
2022/12/01 03:42:08;;;;;;;81.20;27.15;;;;;;;;;;5031191;28;20108;-73
2022/12/01 03:44:38;;;;;;;89.28;28.38;;;;;;;;;;5032122;28;20027;-74
2022/12/01 03:47:10;;;;;;;82.63;27.55;;;;;;;;;;5032135;28;20026;-74
2022/12/01 03:49:37;;;;;;;77.68;28.50;;;;;;;;;;5031939;28;20025;-74
2022/12/01 03:52:06;;;;;;;84.75;27.45;;;;;;;;;;5032173;28;20022;-74
2022/12/01 03:54:44;;;;;;;85.45;28.23;;;;;;;;;;5023469;28;20424;-74
2022/12/01 03:57:14;;;;;;;85.53;27.30;;;;;;;;;;5016010;28;20545;-74
2022/12/01 03:59:40;;;;;;;80.57;27.42;;;;;;;;;;5015815;28;20109;-74
2022/12/01 04:02:07;;;;;;;86.35;28.77;;;;;;;;;;5016050;28;20575;-74
2022/12/01 04:04:33;;;;;;;77.40;26.77;;;;;;;;;;5015901;28;20151;-74
2022/12/01 04:06:59;;;;;;;81.15;27.10;;;;;;;;;;5016259;28;20084;-74
2022/12/01 04:09:25;;;;;;;80.55;27.75;;;;;;;;;;5016021;28;20468;-74
2022/12/01 04:14:36;;;;;;;73.75;26.48;;;;;;;;;;5001261;28;20045;-74
2022/12/01 04:17:02;;;;;;;79.70;28.15;;;;;;;;;;5015922;28;20100;-74
2022/12/01 04:19:28;;;;;;;79.40;27.88;;;;;;;;;;5017590;28;20107;-74
2022/12/01 04:21:54;;;;;;;70.50;26.33;;;;;;;;;;5035014;28;20116;-74
2022/12/01 04:24:20;;;;;;;73.05;27.73;;;;;;;;;;5035265;28;20360;-74
2022/12/01 04:26:46;;;;;;;71.13;26.77;;;;;;;;;;5035343;28;20108;-74
2022/12/01 04:29:13;;;;;;;73.03;26.85;;;;;;;;;;5010407;28;20552;-74
2022/12/01 04:31:39;;;;;;;71.45;26.58;;;;;;;;;;5015421;28;20029;-74
2022/12/01 04:34:05;;;;;;;70.53;27.20;;;;;;;;;;5021281;28;20032;-74
2022/12/01 04:36:32;;;;;;;77.50;27.58;;;;;;;;;;5035417;28;20052;-74
2022/12/01 04:38:58;;;;;;;74.20;27.23;;;;;;;;;;5035027;28;20040;-74
2022/12/01 04:41:24;;;;;;;70.03;25.77;;;;;;;;;;5017553;28;20018;-74
2022/12/01 04:43:52;;;;;;;69.78;25.85;;;;;;;;;;5035205;28;20040;-74
2022/12/01 04:46:18;;;;;;;62.80;25.95;;;;;;;;;;5035295;28;20028;-74
2022/12/01 04:48:45;;;;;;;71.40;25.95;;;;;;;;;;5034933;28;20488;-74
2022/12/01 04:51:11;;;;;;;67.45;26.80;;;;;;;;;;5017005;28;20056;-74
2022/12/01 04:53:37;;;;;;;74.20;27.00;;;;;;;;;;5034842;28;20049;-74
2022/12/01 04:56:03;;;;;;;80.40;27.60;;;;;;;;;;5034942;28;20025;-74
2022/12/01 04:58:31;;;;;;;72.88;27.75;;;;;;;;;;5035030;28;20084;-74
2022/12/01 05:01:01;;;;;;;72.03;26.05;;;;;;;;;;5022944;28;20383;-74
2022/12/01 05:03:28;;;;;;;75.45;26.48;;;;;;;;;;5034734;28;20096;-74
2022/12/01 05:06:07;;;;;;;81.32;26.33;;;;;;;;;;5034209;28;20036;-74
2022/12/01 05:08:33;;;;;;;72.13;25.90;;;;;;;;;;5016911;28;20021;-74
2022/12/01 05:11:00;;;;;;;65.53;25.65;;;;;;;;;;5034516;28;20021;-74
2022/12/01 05:13:26;;;;;;;78.22;27.70;;;;;;;;;;5016767;28;20029;-74
2022/12/01 05:15:52;;;;;;;70.72;26.83;;;;;;;;;;5034460;28;20021;-74
2022/12/01 05:18:18;;;;;;;73.00;28.25;;;;;;;;;;5034382;28;20076;-74
2022/12/01 05:20:56;;;;;;;70.80;26.98;;;;;;;;;;5034539;28;20423;-74
2022/12/01 05:23:26;;;;;;;73.35;26.52;;;;;;;;;;5034427;28;20021;-74
2022/12/01 05:25:52;;;;;;;75.40;27.27;;;;;;;;;;5034251;28;20036;-74
2022/12/01 05:28:19;;;;;;;68.45;25.60;;;;;;;;;;5033625;28;20049;-74
2022/12/01 05:30:45;;;;;;;72.72;26.92;;;;;;;;;;5033769;28;20476;-74
2022/12/01 05:33:11;;;;;;;69.25;27.60;;;;;;;;;;5034029;28;20037;-74
2022/12/01 05:35:37;;;;;;;79.50;27.30;;;;;;;;;;5006130;28;20057;-74
2022/12/01 05:38:03;;;;;;;80.35;28.15;;;;;;;;;;5014418;28;20139;-74
2022/12/01 05:40:29;;;;;;;65.13;26.13;;;;;;;;;;5014215;28;20025;-74
2022/12/01 05:42:56;;;;;;;73.80;27.63;;;;;;;;;;5014352;28;20104;-74
2022/12/01 05:45:22;;;;;;;76.50;25.75;;;;;;;;;;5014086;28;20030;-74
2022/12/01 05:47:48;;;;;;;79.20;27.48;;;;;;;;;;5024608;28;20083;-74
2022/12/01 05:50:14;;;;;;;76.07;26.17;;;;;;;;;;5033962;28;20025;-74
2022/12/01 05:52:40;;;;;;;73.50;26.02;;;;;;;;;;5016104;28;20092;-74
2022/12/01 05:55:06;;;;;;;78.50;27.15;;;;;;;;;;5033962;28;20029;-74
2022/12/01 05:57:33;;;;;;;80.35;28.38;;;;;;;;;;5033786;28;20352;-75
2022/12/01 05:59:59;;;;;;;83.10;28.08;;;;;;;;;;5033305;28;20029;-74
2022/12/01 06:02:25;;;;;;;82.55;27.73;;;;;;;;;;5033436;28;20108;-74
2022/12/01 06:04:52;;;;;;;87.07;28.17;;;;;;;;;;5033723;28;20384;-74
2022/12/01 06:07:19;;;;;;;79.80;26.98;;;;;;;;;;5033741;28;20013;-74
2022/12/01 06:09:45;;;;;;;89.72;28.90;;;;;;;;;;5033512;28;20029;-74
2022/12/01 06:12:12;;;;;;;82.20;26.50;;;;;;;;;;5015874;28;20025;-74
2022/12/01 06:14:38;;;;;;;86.60;28.25;;;;;;;;;;5033434;28;20022;-74
2022/12/01 06:17:04;;;;;;;84.63;27.95;;;;;;;;;;5031506;28;20081;-74
2022/12/01 06:19:30;;;;;;;88.53;28.58;;;;;;;;;;4995426;28;20080;-74
2022/12/01 06:21:56;;;;;;;97.53;28.02;;;;;;;;;;5013611;28;20081;-74
2022/12/01 06:24:22;;;;;;;89.78;28.45;;;;;;;;;;5023562;28;20025;-75
2022/12/01 06:26:49;;;;;;;85.78;27.63;;;;;;;;;;5014630;28;20025;-75
2022/12/01 06:29:15;;;;;;;84.15;27.15;;;;;;;;;;5030391;28;20022;-75
2022/12/01 06:31:41;;;;;;;89.60;27.92;;;;;;;;;;5020516;28;20026;-75
2022/12/01 06:34:07;;;;;;;89.28;26.98;;;;;;;;;;4994781;28;20369;-75
2022/12/01 06:36:33;;;;;;;86.10;27.85;;;;;;;;;;5013440;28;20383;-75
2022/12/01 06:38:59;;;;;;;98.10;28.30;;;;;;;;;;5032252;28;20581;-75
2022/12/01 06:41:25;;;;;;;96.63;29.52;;;;;;;;;;5032076;28;20033;-75
2022/12/01 06:43:51;;;;;;;91.95;28.63;;;;;;;;;;5031895;28;20037;-75
2022/12/01 06:46:17;;;;;;;92.57;28.75;;;;;;;;;;5032027;28;20060;-75
2022/12/01 06:48:43;;;;;;;91.28;27.85;;;;;;;;;;5013661;28;20030;-75
2022/12/01 06:51:09;;;;;;;91.80;28.00;;;;;;;;;;5012259;28;20037;-75
2022/12/01 06:53:36;;;;;;;91.85;28.63;;;;;;;;;;5014286;28;20379;-76
2022/12/01 06:56:03;;;;;;;86.70;27.58;;;;;;;;;;5023013;28;20026;-75
2022/12/01 06:58:29;;;;;;;83.32;26.27;;;;;;;;;;5003021;28;20368;-75
2022/12/01 07:00:57;;;;;;;98.22;27.52;;;;;;;;;;5023476;28;20486;-75
2022/12/01 07:03:23;;;;;;;86.95;25.73;;;;;;;;;;5020082;28;20120;-75
2022/12/01 07:05:59;;;;;;;88.40;26.60;;;;;;;;;;5022697;28;20376;-75
2022/12/01 07:08:26;;;;;;;89.70;26.55;;;;;;;;;;5004479;28;20036;-75
2022/12/01 07:11:08;;;;;;;91.13;26.52;;;;;;;;;;5021154;28;20022;-75
2022/12/01 07:13:35;;;;;;;87.35;28.58;;;;;;;;;;5022305;28;20476;-75
2022/12/01 07:16:01;;;;;;;79.75;26.90;;;;;;;;;;5021132;28;20046;-75
2022/12/01 07:18:28;;;;;;;91.10;27.95;;;;;;;;;;5022631;28;20033;-75
2022/12/01 07:20:58;;;;;;;88.70;27.00;;;;;;;;;;5005377;28;20036;-75
2022/12/01 07:23:24;;;;;;;110.18;30.40;;;;;;;;;;5001411;28;20214;-75
2022/12/01 07:25:57;;;;;;;88.70;29.38;;;;;;;;;;5022113;28;20061;-75
2022/12/01 07:28:23;;;;;;;89.78;28.17;;;;;;;;;;5019871;28;20554;-75
2022/12/01 07:30:49;;;;;;;105.70;29.40;;;;;;;;;;5026752;28;20037;-76
2022/12/01 07:33:15;;;;;;;99.82;30.80;;;;;;;;;;5028512;28;20049;-75
2022/12/01 07:35:41;;;;;;;101.30;29.85;;;;;;;;;;5029434;28;20029;-75
2022/12/01 07:38:07;;;;;;;95.40;28.25;;;;;;;;;;5034463;28;20022;-75
2022/12/01 07:40:33;;;;;;;83.97;27.73;;;;;;;;;;5032447;28;20072;-75
2022/12/01 07:42:59;;;;;;;108.35;31.33;;;;;;;;;;5008867;28;20040;-76
2022/12/01 07:45:25;;;;;;;99.78;29.88;;;;;;;;;;5034404;28;20025;-76
2022/12/01 07:47:54;;;;;;;111.32;32.08;;;;;;;;;;5028268;28;20025;-76
2022/12/01 07:50:20;;;;;;;103.10;30.30;;;;;;;;;;5020114;28;20026;-76
2022/12/01 07:52:50;;;;;;;111.93;32.30;;;;;;;;;;5020190;28;20021;-76
2022/12/01 07:55:16;;;;;;;104.60;31.08;;;;;;;;;;5024714;28;20068;-76
2022/12/01 07:57:42;;;;;;;115.45;30.55;;;;;;;;;;5028742;28;20038;-76
2022/12/01 08:00:09;;;;;;;105.03;31.85;;;;;;;;;;5028336;28;20040;-76
2022/12/01 08:02:35;;;;;;;99.60;30.88;;;;;;;;;;5008939;28;20028;-76
2022/12/01 08:05:01;;;;;;;112.30;31.05;;;;;;;;;;5023863;28;20029;-76
2022/12/01 08:07:27;;;;;;;109.93;31.55;;;;;;;;;;5008382;28;20033;-76
2022/12/01 08:09:53;;;;;;;100.38;30.52;;;;;;;;;;5025291;28;20026;-76
2022/12/01 08:12:19;;;;;;;107.22;33.00;;;;;;;;;;5024427;28;20037;-76
2022/12/01 08:14:45;;;;;;;115.38;35.47;;;;;;;;;;5008520;28;20037;-76
2022/12/01 08:17:11;;;;;;;111.70;33.55;;;;;;;;;;5031128;28;20045;-76
2022/12/01 08:19:37;;;;;;;104.20;32.35;;;;;;;;;;5014939;28;20030;-76
2022/12/01 08:22:03;;;;;;;116.75;32.05;;;;;;;;;;5014627;28;20026;-76
2022/12/01 08:24:29;;;;;;;103.38;30.85;;;;;;;;;;5027187;28;20087;-76
2022/12/01 08:26:55;;;;;;;98.15;30.95;;;;;;;;;;5034536;28;20021;-76
2022/12/01 08:29:21;;;;;;;109.07;31.77;;;;;;;;;;5033477;28;20026;-76
2022/12/01 08:32:18;;;;;;;97.03;30.65;;;;;;;;;;5028539;28;20033;-76
2022/12/01 08:34:53;;;;;;;106.15;30.50;;;;;;;;;;5036432;28;20025;-76
2022/12/01 08:37:38;;;;;;;105.32;32.38;;;;;;;;;;5054162;28;20064;-77
2022/12/01 08:40:04;;;;;;;111.55;31.67;;;;;;;;;;5014503;28;20018;-76
2022/12/01 08:42:30;;;;;;;97.03;30.63;;;;;;;;;;5013673;28;20026;-77
2022/12/01 08:44:56;;;;;;;102.03;31.95;;;;;;;;;;4996661;28;20038;-77
2022/12/01 08:47:22;;;;;;;103.57;30.17;;;;;;;;;;5020835;28;20139;-77
2022/12/01 08:49:48;;;;;;;102.55;31.63;;;;;;;;;;5048654;28;20033;-76
2022/12/01 08:52:19;;;;;;;107.88;33.15;;;;;;;;;;5033530;28;20049;-75
2022/12/01 08:54:45;;;;;;;106.40;31.85;;;;;;;;;;5031546;28;20452;-75
2022/12/01 08:57:11;;;;;;;104.93;31.75;;;;;;;;;;5027987;28;20060;-75
2022/12/01 08:59:37;;;;;;;103.80;33.65;;;;;;;;;;5015321;28;20451;-75
2022/12/01 09:02:05;;;;;;;104.72;34.05;;;;;;;;;;5032799;28;20034;-75
2022/12/01 09:04:31;;;;;;;97.97;32.25;;;;;;;;;;5028202;28;20036;-75
2022/12/01 09:06:57;;;;;;;92.35;31.02;;;;;;;;;;5013771;28;20046;-75
2022/12/01 09:09:25;;;;;;;106.22;33.85;;;;;;;;;;5015138;28;20040;-75
2022/12/01 09:11:52;;;;;;;114.15;32.10;;;;;;;;;;5014975;28;20482;-75
2022/12/01 09:14:19;;;;;;;109.53;32.42;;;;;;;;;;5032324;28;20041;-75
2022/12/01 09:16:45;;;;;;;100.13;31.40;;;;;;;;;;5038844;28;20060;-75
2022/12/01 09:19:12;;;;;;;103.03;34.50;;;;;;;;;;5033166;28;20052;-75
2022/12/01 09:21:38;;;;;;;111.03;36.15;;;;;;;;;;5032418;28;20475;-75
2022/12/01 09:24:06;;;;;;;110.13;37.47;;;;;;;;;;5033016;28;20478;-75
2022/12/01 09:26:32;;;;;;;109.43;32.55;;;;;;;;;;5033098;28;20036;-75
2022/12/01 09:29:00;;;;;;;106.30;34.22;;;;;;;;;;5035245;28;20017;-75
2022/12/01 09:31:26;;;;;;;97.43;33.38;;;;;;;;;;5021960;28;20034;-75
2022/12/01 09:33:59;;;;;;;106.70;34.53;;;;;;;;;;5002623;28;20056;-75
2022/12/01 09:36:25;;;;;;;106.32;34.85;;;;;;;;;;5036932;28;20116;-75
2022/12/01 09:38:52;;;;;;;107.90;34.45;;;;;;;;;;5035182;28;20021;-75
2022/12/01 09:41:30;;;;;;;107.15;34.08;;;;;;;;;;5043023;28;20067;-75
2022/12/01 09:43:59;;;;;;;99.40;34.30;;;;;;;;;;5040629;28;20021;-75
2022/12/01 09:46:28;;;;;;;106.40;34.28;;;;;;;;;;5030395;28;20543;-75
2022/12/01 09:48:56;;;;;;;105.05;33.58;;;;;;;;;;5030440;28;20029;-75
2022/12/01 09:51:23;;;;;;;108.85;33.65;;;;;;;;;;5029100;28;20550;-75
2022/12/01 09:53:50;;;;;;;106.03;35.30;;;;;;;;;;5032936;28;20033;-75
2022/12/01 09:56:27;;;;;;;110.50;35.10;;;;;;;;;;5032188;28;20171;-75
2022/12/01 09:58:59;;;;;;;99.85;33.10;;;;;;;;;;5032561;28;20022;-75
2022/12/01 10:01:38;;;;;;;109.70;35.60;;;;;;;;;;5025120;28;20547;-75
2022/12/01 10:04:08;;;;;;;106.40;35.28;;;;;;;;;;5019012;28;20037;-75
2022/12/01 10:06:39;;;;;;;102.32;34.45;;;;;;;;;;5031531;28;20025;-75
2022/12/01 10:09:17;;;;;;;118.50;36.50;;;;;;;;;;5021580;28;20445;-75
2022/12/01 10:11:45;;;;;;;109.53;36.63;;;;;;;;;;5023477;28;20045;-75
2022/12/01 10:14:19;;;;;;;118.40;36.63;;;;;;;;;;5109135;27;20516;-75
2022/12/01 10:16:59;;;;;;;109.50;36.42;;;;;;;;;;5105492;28;20123;-75
2022/12/01 10:19:33;;;;;;;111.68;36.25;;;;;;;;;;5106244;28;20486;-75
2022/12/01 10:22:08;;;;;;;98.65;36.15;;;;;;;;;;5110012;28;20470;-75
2022/12/01 10:24:43;;;;;;;119.93;37.55;;;;;;;;;;5104804;28;20081;-75
2022/12/01 10:27:09;;;;;;;102.05;35.30;;;;;;;;;;5089097;28;20044;-75
2022/12/01 10:29:41;;;;;;;109.50;36.05;;;;;;;;;;5091720;28;20028;-75
2022/12/01 10:32:31;;;;;;;101.97;34.67;;;;;;;;;;5105082;28;20028;-75
2022/12/01 10:34:57;;;;;;;103.60;35.05;;;;;;;;;;5102539;28;20062;-75
2022/12/01 10:37:27;;;;;;;101.65;34.10;;;;;;;;;;5088934;28;20489;-75
2022/12/01 10:39:54;;;;;;;111.15;36.17;;;;;;;;;;5098061;28;20032;-75
2022/12/01 10:42:34;;;;;;;97.70;34.88;;;;;;;;;;5108706;28;20105;-75
2022/12/01 10:45:01;;;;;;;98.15;34.88;;;;;;;;;;5107149;28;20028;-75
2022/12/01 10:47:27;;;;;;;102.88;33.65;;;;;;;;;;5107979;28;20024;-75
2022/12/01 10:49:54;;;;;;;99.20;34.28;;;;;;;;;;5108508;28;20034;-75
2022/12/01 10:52:32;;;;;;;98.43;32.72;;;;;;;;;;5107343;28;20038;-75
2022/12/01 10:54:58;;;;;;;90.25;33.15;;;;;;;;;;5108910;28;20012;-75
2022/12/01 10:57:26;;;;;;;99.55;33.30;;;;;;;;;;5103396;28;20035;-75
2022/12/01 10:59:55;;;;;;;84.07;33.80;;;;;;;;;;5108216;28;20454;-75
2022/12/01 11:02:24;;;;;;;90.30;33.25;;;;;;;;;;5108380;28;20035;-75
2022/12/01 11:05:05;;;;;;;86.03;32.08;;;;;;;;;;5106508;28;20047;-74
2022/12/01 11:07:41;;;;;;;88.40;33.00;;;;;;;;;;5104592;28;20042;-74
2022/12/01 11:10:19;;;;;;;87.13;32.33;;;;;;;;;;5107783;28;20054;-75
2022/12/01 11:12:51;;;;;;;87.15;31.67;;;;;;;;;;5100136;28;20044;-75
2022/12/01 11:15:20;;;;;;;85.25;31.05;;;;;;;;;;5105212;28;20032;-75
2022/12/01 11:17:47;;;;;;;91.53;32.75;;;;;;;;;;5108479;28;20465;-75
2022/12/01 11:20:31;;;;;;;81.40;31.80;;;;;;;;;;5114930;28;20111;-75
2022/12/01 11:23:16;;;;;;;89.68;31.85;;;;;;;;;;5104578;28;20028;-75
2022/12/01 11:25:56;;;;;;;84.50;32.58;;;;;;;;;;5093289;28;20090;-75
2022/12/01 11:28:22;;;;;;;85.53;31.98;;;;;;;;;;5090364;28;20032;-74
2022/12/01 11:30:54;;;;;;;83.00;30.83;;;;;;;;;;5082940;28;20165;-75
2022/12/01 11:33:20;;;;;;;84.18;31.48;;;;;;;;;;5093317;28;20024;-74
2022/12/01 11:35:47;;;;;;;83.82;31.55;;;;;;;;;;5093593;28;20025;-75
2022/12/01 11:38:19;;;;;;;82.72;31.23;;;;;;;;;;5093825;28;20028;-75
2022/12/01 11:40:47;;;;;;;79.15;30.73;;;;;;;;;;5093725;28;20032;-76
2022/12/01 11:43:20;;;;;;;84.65;30.98;;;;;;;;;;5093160;28;20034;-75
2022/12/01 11:45:46;;;;;;;79.22;29.45;;;;;;;;;;5092128;28;20012;-75
2022/12/01 11:48:14;;;;;;;82.63;30.98;;;;;;;;;;5093535;28;20016;-75
2022/12/01 11:50:41;;;;;;;73.05;28.73;;;;;;;;;;5093570;28;20027;-75
2022/12/01 11:53:25;;;;;;;80.35;31.05;;;;;;;;;;5093334;28;20032;-75
2022/12/01 11:55:51;;;;;;;85.53;32.40;;;;;;;;;;5093225;28;20039;-75
2022/12/01 11:58:17;;;;;;;83.43;31.17;;;;;;;;;;5093436;28;20024;-75
2022/12/01 12:00:47;;;;;;;82.88;30.02;;;;;;;;;;5092105;28;20412;-75
2022/12/01 12:03:16;;;;;;;75.10;29.63;;;;;;;;;;5073566;28;20028;-75
2022/12/01 12:05:42;;;;;;;80.05;30.88;;;;;;;;;;5073293;28;20024;-75
2022/12/01 12:08:26;;;;;;;75.47;30.95;;;;;;;;;;5086945;28;20492;-75
2022/12/01 12:10:59;;;;;;;74.53;28.17;;;;;;;;;;5092305;28;20086;-75
2022/12/01 12:13:25;;;;;;;78.05;29.55;;;;;;;;;;5090053;28;20044;-75
2022/12/01 12:15:57;;;;;;;78.88;29.83;;;;;;;;;;5092650;28;20072;-74
2022/12/01 12:18:23;;;;;;;77.70;30.88;;;;;;;;;;5093265;28;20019;-74
2022/12/01 12:21:07;;;;;;;76.03;29.45;;;;;;;;;;5091957;28;20036;-76
2022/12/01 12:23:45;;;;;;;75.97;28.92;;;;;;;;;;5087959;28;20054;-74
2022/12/01 12:26:19;;;;;;;70.80;29.08;;;;;;;;;;5083202;28;20485;-74
2022/12/01 12:29:03;;;;;;;72.68;28.45;;;;;;;;;;5090819;28;20030;-74
2022/12/01 12:31:35;;;;;;;80.18;29.13;;;;;;;;;;5084978;28;20024;-74
2022/12/01 12:34:07;;;;;;;67.43;29.20;;;;;;;;;;5091703;28;20024;-74
2022/12/01 12:36:51;;;;;;;70.17;28.60;;;;;;;;;;5072394;28;20024;-74
2022/12/01 12:39:26;;;;;;;60.97;26.10;;;;;;;;;;5073148;28;20021;-74
2022/12/01 12:41:54;;;;;;;66.18;27.13;;;;;;;;;;5073001;28;20031;-74
2022/12/01 12:44:20;;;;;;;69.88;28.15;;;;;;;;;;5072858;28;20043;-74
2022/12/01 12:47:04;;;;;;;72.25;28.33;;;;;;;;;;5076592;28;20470;-74
2022/12/01 12:49:31;;;;;;;69.20;29.00;;;;;;;;;;5093170;28;20032;-74
2022/12/01 12:52:10;;;;;;;65.63;27.13;;;;;;;;;;5092978;28;20020;-74
2022/12/01 12:54:36;;;;;;;61.05;25.70;;;;;;;;;;5093221;28;20039;-73
2022/12/01 12:57:05;;;;;;;58.13;25.63;;;;;;;;;;5092240;28;20024;-73
2022/12/01 12:59:36;;;;;;;66.00;27.73;;;;;;;;;;5092033;28;20478;-72
2022/12/01 13:02:05;;;;;;;62.28;24.60;;;;;;;;;;5089540;28;20042;-73
2022/12/01 13:04:37;;;;;;;60.75;24.73;;;;;;;;;;5091704;28;20028;-72
2022/12/01 13:07:06;;;;;;;59.90;24.52;;;;;;;;;;5087253;28;20024;-73
2022/12/01 13:09:41;;;;;;;58.42;24.85;;;;;;;;;;5091801;28;20017;-73
2022/12/01 13:12:14;;;;;;;64.47;25.25;;;;;;;;;;5088493;28;20375;-72
2022/12/01 13:14:45;;;;;;;58.78;23.83;;;;;;;;;;5091707;28;20024;-73
2022/12/01 13:17:14;;;;;;;63.15;24.55;;;;;;;;;;5093319;28;20493;-73
2022/12/01 13:19:42;;;;;;;60.60;25.02;;;;;;;;;;5100409;28;20693;-73
2022/12/01 13:22:09;;;;;;;58.00;24.27;;;;;;;;;;5092382;28;20016;-73
2022/12/01 13:24:35;;;;;;;58.28;24.27;;;;;;;;;;5077766;28;20417;-72
2022/12/01 13:27:07;;;;;;;59.15;24.63;;;;;;;;;;5090568;28;20028;-73
2022/12/01 13:29:43;;;;;;;58.10;24.60;;;;;;;;;;5095217;28;20350;-73
2022/12/01 13:32:24;;;;;;;53.95;23.92;;;;;;;;;;5092874;28;20082;-72
2022/12/01 13:34:50;;;;;;;52.67;23.52;;;;;;;;;;5089239;28;20028;-73
2022/12/01 13:37:25;;;;;;;58.33;23.85;;;;;;;;;;5091673;28;20051;-73
2022/12/01 13:39:53;;;;;;;54.60;23.55;;;;;;;;;;5091735;28;20567;-73
2022/12/01 13:42:24;;;;;;;62.45;25.23;;;;;;;;;;5091752;28;20087;-73
2022/12/01 13:44:58;;;;;;;62.97;25.77;;;;;;;;;;5091526;28;20137;-73
2022/12/01 13:47:24;;;;;;;57.85;23.45;;;;;;;;;;5088335;28;20058;-73
2022/12/01 13:49:51;;;;;;;57.72;23.15;;;;;;;;;;5091435;28;20047;-73
2022/12/01 13:52:27;;;;;;;61.10;24.42;;;;;;;;;;5092974;28;20019;-77
2022/12/01 13:55:01;;;;;;;54.45;24.73;;;;;;;;;;5093587;28;20204;-77
2022/12/01 13:57:29;;;;;;;58.88;23.73;;;;;;;;;;5077923;28;20046;-77
2022/12/01 13:59:58;;;;;;;53.55;23.98;;;;;;;;;;5095239;28;20482;-78
2022/12/01 14:02:25;;;;;;;51.72;23.17;;;;;;;;;;5089241;28;20074;-77
2022/12/01 14:04:51;;;;;;;52.28;21.92;;;;;;;;;;5091692;28;20054;-77
2022/12/01 14:07:23;;;;;;;53.63;23.65;;;;;;;;;;5089498;28;20036;-75
2022/12/01 14:09:50;;;;;;;56.67;25.10;;;;;;;;;;5074744;28;20025;-75
2022/12/01 14:14:39;;;;;;;55.00;24.30;;;;;;;;;;5130884;27;20112;-77
2022/12/01 14:17:06;;;;;;;57.92;25.70;;;;;;;;;;5129905;28;20016;-76
2022/12/01 14:19:38;;;;;;;57.80;25.17;;;;;;;;;;5127092;27;20032;-76
2022/12/01 14:22:05;;;;;;;65.22;27.83;;;;;;;;;;5110372;28;20024;-76
2022/12/01 14:24:35;;;;;;;60.30;25.73;;;;;;;;;;5130023;28;20023;-77
2022/12/01 14:27:02;;;;;;;56.75;25.38;;;;;;;;;;5110648;28;20502;-74
2022/12/01 14:29:37;;;;;;;60.95;25.88;;;;;;;;;;5109768;28;20035;-74
2022/12/01 14:32:23;;;;;;;64.25;26.08;;;;;;;;;;5109717;28;20023;-78
2022/12/01 14:34:51;;;;;;;54.05;24.13;;;;;;;;;;5135622;27;20083;-74
2022/12/01 14:37:18;;;;;;;55.75;25.10;;;;;;;;;;5129508;28;20020;-73